createdAt,value
2019-05-29T00:00:01.352Z,0.00
2019-05-29T00:01:01.358Z,0.00
2019-05-29T00:02:01.330Z,0.00
2019-05-29T00:03:01.321Z,0.00
2019-05-29T00:04:01.373Z,0.00
2019-05-29T00:05:01.309Z,0.00
2019-05-29T00:06:01.309Z,0.00
2019-05-29T00:07:01.279Z,0.00
2019-05-29T00:08:01.269Z,0.00
2019-05-29T00:09:01.279Z,0.00
2019-05-29T00:10:01.248Z,0.00
2019-05-29T00:11:01.237Z,0.00
2019-05-29T00:12:01.292Z,0.00
2019-05-29T00:13:01.215Z,0.00
2019-05-29T00:14:15.552Z,0.00
2019-05-29T00:15:02.195Z,0.00
2019-05-29T00:16:01.181Z,0.00
2019-05-29T00:17:01.174Z,0.00
2019-05-29T00:18:01.160Z,0.00
2019-05-29T00:19:01.191Z,0.00
2019-05-29T00:20:01.142Z,0.00
2019-05-29T00:21:01.167Z,0.00
2019-05-29T00:22:01.121Z,0.00
2019-05-29T00:23:01.110Z,0.00
2019-05-29T00:24:01.458Z,0.00
2019-05-29T00:25:01.116Z,0.00
2019-05-29T00:26:01.069Z,0.00
2019-05-29T00:27:01.060Z,0.00
2019-05-29T00:28:01.048Z,0.00
2019-05-29T00:29:01.071Z,0.00
2019-05-29T00:30:01.028Z,0.00
2019-05-29T00:31:01.025Z,0.00
2019-05-29T00:32:01.007Z,0.00
2019-05-29T00:33:00.996Z,0.00
2019-05-29T00:34:01.016Z,0.00
2019-05-29T00:35:00.978Z,0.00
2019-05-29T00:36:00.967Z,0.00
2019-05-29T00:37:00.955Z,0.00
2019-05-29T00:38:00.947Z,0.00
2019-05-29T00:39:04.705Z,0.00
2019-05-29T00:40:00.959Z,0.00
2019-05-29T00:41:00.913Z,0.00
2019-05-29T00:42:00.899Z,0.00
2019-05-29T00:43:00.891Z,0.00
2019-05-29T00:44:00.909Z,0.00
2019-05-29T00:45:00.870Z,0.00
2019-05-29T00:46:00.860Z,0.00
2019-05-29T00:47:00.850Z,0.00
2019-05-29T00:48:01.758Z,0.00
2019-05-29T00:49:00.876Z,0.00
2019-05-29T00:50:00.832Z,0.00
2019-05-29T00:51:00.798Z,0.00
2019-05-29T00:52:00.796Z,0.00
2019-05-29T00:53:00.785Z,0.00
2019-05-29T00:54:00.775Z,0.00
2019-05-29T00:55:00.786Z,0.00
2019-05-29T00:56:00.751Z,0.00
2019-05-29T00:57:00.747Z,0.00
2019-05-29T00:58:00.731Z,0.00
2019-05-29T00:59:01.224Z,0.00
2019-05-29T01:00:00.741Z,0.00
2019-05-29T01:01:00.694Z,0.00
2019-05-29T01:02:00.682Z,0.00
2019-05-29T01:03:00.678Z,0.00
2019-05-29T01:04:00.661Z,0.00
2019-05-29T01:05:01.230Z,0.00
2019-05-29T01:06:00.658Z,0.00
2019-05-29T01:07:00.631Z,0.00
2019-05-29T01:08:00.620Z,0.00
2019-05-29T01:09:00.608Z,0.00
2019-05-29T01:10:00.649Z,0.00
2019-05-29T01:11:00.588Z,0.00
2019-05-29T01:12:00.576Z,0.00
2019-05-29T01:13:00.566Z,0.00
2019-05-29T01:14:00.556Z,0.00
2019-05-29T01:15:00.605Z,0.00
2019-05-29T01:16:00.535Z,0.00
2019-05-29T01:17:00.523Z,0.00
2019-05-29T01:18:00.514Z,0.00
2019-05-29T01:19:00.503Z,0.00
2019-05-29T01:20:00.514Z,0.00
2019-05-29T01:21:00.482Z,0.00
2019-05-29T01:22:00.471Z,0.00
2019-05-29T01:23:00.462Z,0.00
2019-05-29T01:24:00.446Z,0.00
2019-05-29T01:25:01.322Z,0.00
2019-05-29T01:26:00.430Z,0.00
2019-05-29T01:27:00.417Z,0.00
2019-05-29T01:28:01.818Z,0.00
2019-05-29T01:29:00.399Z,0.00
2019-05-29T01:30:00.407Z,0.00
2019-05-29T01:31:01.272Z,0.00
2019-05-29T01:32:00.366Z,0.00
2019-05-29T01:33:00.354Z,0.00
2019-05-29T01:34:00.337Z,0.00
2019-05-29T01:35:00.356Z,0.00
2019-05-29T01:36:00.324Z,0.00
2019-05-29T01:37:00.314Z,0.00
2019-05-29T01:38:00.303Z,0.00
2019-05-29T01:39:00.284Z,0.00
2019-05-29T01:40:00.303Z,0.00
2019-05-29T01:41:00.263Z,0.00
2019-05-29T01:42:00.272Z,0.00
2019-05-29T01:43:00.248Z,0.00
2019-05-29T01:44:00.233Z,0.00
2019-05-29T01:45:07.747Z,0.00
2019-05-29T01:46:01.211Z,0.00
2019-05-29T01:47:00.201Z,0.00
2019-05-29T01:48:00.190Z,0.00
2019-05-29T01:49:00.179Z,0.00
2019-05-29T01:50:00.168Z,0.00
2019-05-29T01:51:00.185Z,0.00
2019-05-29T01:52:00.149Z,0.00
2019-05-29T01:53:00.136Z,0.00
2019-05-29T01:54:00.126Z,0.00
2019-05-29T01:55:00.181Z,0.00
2019-05-29T01:56:00.133Z,0.00
2019-05-29T01:57:00.142Z,0.00
2019-05-29T01:58:00.083Z,0.00
2019-05-29T01:59:00.103Z,0.00
2019-05-29T02:00:00.063Z,0.00
2019-05-29T02:01:00.793Z,0.00
2019-05-29T02:02:00.062Z,0.00
2019-05-29T02:03:00.032Z,0.00
2019-05-29T02:04:00.020Z,0.00
2019-05-29T02:05:00.011Z,0.00
2019-05-29T02:06:00.027Z,0.00
2019-05-29T02:06:59.988Z,0.00
2019-05-29T02:07:59.980Z,0.00
2019-05-29T02:08:59.967Z,0.00
2019-05-29T02:09:59.957Z,0.00
2019-05-29T02:10:59.968Z,0.00
2019-05-29T02:11:59.936Z,0.00
2019-05-29T02:12:59.926Z,0.00
2019-05-29T02:13:59.915Z,0.00
2019-05-29T02:14:59.904Z,0.00
2019-05-29T02:15:59.916Z,0.00
2019-05-29T02:16:59.884Z,0.00
2019-05-29T02:17:59.889Z,0.00
2019-05-29T02:18:59.855Z,0.00
2019-05-29T02:19:59.845Z,0.00
2019-05-29T02:20:59.863Z,0.00
2019-05-29T02:21:59.829Z,0.00
2019-05-29T02:22:59.813Z,0.00
2019-05-29T02:23:59.808Z,0.00
2019-05-29T02:24:59.793Z,0.00
2019-05-29T02:25:59.812Z,0.00
2019-05-29T02:26:59.777Z,0.00
2019-05-29T02:27:59.767Z,0.00
2019-05-29T02:28:59.757Z,0.00
2019-05-29T02:29:59.739Z,0.00
2019-05-29T02:30:59.760Z,0.00
2019-05-29T02:31:59.753Z,0.00
2019-05-29T02:33:00.527Z,0.00
2019-05-29T02:33:59.711Z,0.00
2019-05-29T02:34:59.687Z,0.00
2019-05-29T02:35:59.705Z,0.00
2019-05-29T02:36:59.671Z,0.00
2019-05-29T02:38:00.367Z,0.00
2019-05-29T02:38:59.646Z,0.00
2019-05-29T02:39:59.638Z,0.00
2019-05-29T02:40:59.688Z,0.00
2019-05-29T02:41:59.617Z,0.00
2019-05-29T02:42:59.651Z,0.00
2019-05-29T02:43:59.592Z,0.00
2019-05-29T02:44:59.582Z,0.00
2019-05-29T02:45:59.601Z,0.00
2019-05-29T02:46:59.571Z,0.00
2019-05-29T02:47:59.554Z,0.00
2019-05-29T02:48:59.581Z,0.00
2019-05-29T02:49:59.535Z,0.00
2019-05-29T02:50:59.550Z,0.00
2019-05-29T02:51:59.509Z,0.00
2019-05-29T02:52:59.499Z,0.00
2019-05-29T02:53:59.488Z,0.00
2019-05-29T02:54:59.478Z,0.00
2019-05-29T02:55:59.517Z,0.00
2019-05-29T02:56:59.457Z,0.00
2019-05-29T02:58:00.047Z,0.00
2019-05-29T02:58:59.435Z,0.00
2019-05-29T03:00:00.077Z,0.00
2019-05-29T03:00:59.422Z,0.00
2019-05-29T03:01:59.432Z,0.00
2019-05-29T03:02:59.393Z,0.00
2019-05-29T03:03:59.380Z,0.00
2019-05-29T03:04:59.376Z,0.00
2019-05-29T03:05:59.361Z,0.00
2019-05-29T03:06:59.379Z,0.00
2019-05-29T03:08:00.182Z,0.00
2019-05-29T03:08:59.330Z,0.00
2019-05-29T03:09:59.322Z,0.00
2019-05-29T03:10:59.308Z,0.00
2019-05-29T03:12:00.454Z,0.00
2019-05-29T03:12:59.287Z,0.00
2019-05-29T03:13:59.277Z,0.00
2019-05-29T03:14:59.271Z,0.00
2019-05-29T03:16:10.511Z,0.00
2019-05-29T03:17:00.267Z,0.00
2019-05-29T03:17:59.250Z,0.00
2019-05-29T03:18:59.222Z,0.00
2019-05-29T03:19:59.206Z,0.00
2019-05-29T03:20:59.203Z,0.00
2019-05-29T03:21:59.215Z,0.00
2019-05-29T03:22:59.183Z,0.00
2019-05-29T03:24:00.145Z,0.00
2019-05-29T03:24:59.164Z,0.00
2019-05-29T03:25:59.151Z,0.00
2019-05-29T03:27:01.032Z,0.00
2019-05-29T03:27:59.129Z,0.00
2019-05-29T03:28:59.118Z,0.00
2019-05-29T03:29:59.109Z,0.00
2019-05-29T03:30:59.100Z,0.00
2019-05-29T03:31:59.969Z,0.00
2019-05-29T03:32:59.090Z,0.00
2019-05-29T03:33:59.086Z,0.00
2019-05-29T03:34:59.056Z,0.00
2019-05-29T03:35:59.038Z,0.00
2019-05-29T03:36:59.060Z,0.00
2019-05-29T03:37:59.236Z,0.00
2019-05-29T03:38:59.005Z,0.00
2019-05-29T03:39:58.995Z,0.00
2019-05-29T03:40:58.986Z,0.00
2019-05-29T03:41:59.011Z,0.00
2019-05-29T03:42:58.976Z,0.00
2019-05-29T03:43:58.963Z,0.00
2019-05-29T03:44:58.956Z,0.00
2019-05-29T03:45:58.938Z,0.00
2019-05-29T03:46:58.953Z,0.00
2019-05-29T03:47:58.940Z,0.00
2019-05-29T03:49:00.100Z,0.00
2019-05-29T03:49:58.904Z,0.00
2019-05-29T03:50:58.914Z,0.00
2019-05-29T03:51:58.903Z,0.00
2019-05-29T03:52:58.866Z,5.62
2019-05-29T03:53:58.858Z,5.62
2019-05-29T03:54:58.843Z,5.62
2019-05-29T03:55:58.845Z,5.62
2019-05-29T03:56:58.867Z,5.62
2019-05-29T03:57:58.807Z,5.62
2019-05-29T03:58:58.799Z,5.62
2019-05-29T03:59:59.596Z,5.62
2019-05-29T04:00:58.782Z,5.62
2019-05-29T04:01:58.794Z,5.62
2019-05-29T04:02:58.755Z,5.62
2019-05-29T04:03:58.744Z,11.25
2019-05-29T04:04:58.740Z,11.25
2019-05-29T04:05:58.736Z,11.25
2019-05-29T04:06:58.742Z,11.25
2019-05-29T04:07:58.702Z,11.25
2019-05-29T04:08:58.699Z,11.25
2019-05-29T04:09:58.688Z,11.25
2019-05-29T04:10:58.678Z,11.25
2019-05-29T04:11:59.210Z,11.25
2019-05-29T04:12:58.656Z,11.25
2019-05-29T04:13:58.645Z,11.25
2019-05-29T04:14:58.631Z,11.25
2019-05-29T04:15:58.626Z,11.25
2019-05-29T04:17:00.243Z,11.25
2019-05-29T04:17:58.626Z,11.25
2019-05-29T04:18:58.595Z,11.25
2019-05-29T04:19:59.525Z,16.88
2019-05-29T04:20:58.565Z,16.88
2019-05-29T04:21:58.561Z,16.88
2019-05-29T04:22:58.575Z,16.88
2019-05-29T04:23:58.563Z,16.88
2019-05-29T04:24:58.523Z,16.88
2019-05-29T04:25:58.522Z,16.88
2019-05-29T04:26:58.510Z,16.88
2019-05-29T04:27:58.522Z,16.88
2019-05-29T04:28:58.489Z,16.88
2019-05-29T04:29:58.480Z,16.88
2019-05-29T04:30:58.470Z,22.50
2019-05-29T04:31:58.458Z,22.50
2019-05-29T04:32:58.470Z,22.50
2019-05-29T04:33:58.444Z,22.50
2019-05-29T04:34:58.426Z,22.50
2019-05-29T04:35:58.407Z,22.50
2019-05-29T04:36:58.399Z,22.50
2019-05-29T04:37:58.424Z,22.50
2019-05-29T04:38:58.396Z,22.50
2019-05-29T04:39:58.395Z,22.50
2019-05-29T04:40:58.364Z,22.50
2019-05-29T04:41:58.351Z,22.50
2019-05-29T04:42:58.363Z,22.50
2019-05-29T04:43:59.291Z,22.50
2019-05-29T04:44:58.314Z,22.50
2019-05-29T04:45:59.071Z,22.50
2019-05-29T04:47:10.096Z,22.50
2019-05-29T04:48:00.170Z,28.12
2019-05-29T04:48:58.279Z,28.12
2019-05-29T04:49:59.171Z,28.12
2019-05-29T04:50:58.277Z,28.12
2019-05-29T04:51:58.245Z,28.12
2019-05-29T04:52:59.118Z,33.75
2019-05-29T04:53:58.224Z,33.75
2019-05-29T04:54:58.246Z,33.75
2019-05-29T04:55:58.204Z,33.75
2019-05-29T04:56:58.188Z,39.38
2019-05-29T04:57:58.206Z,39.38
2019-05-29T04:58:58.166Z,39.38
2019-05-29T04:59:58.185Z,39.38
2019-05-29T05:00:59.555Z,39.38
2019-05-29T05:01:58.141Z,39.38
2019-05-29T05:02:58.153Z,39.38
2019-05-29T05:03:58.121Z,39.38
2019-05-29T05:04:58.109Z,39.38
2019-05-29T05:05:58.122Z,39.38
2019-05-29T05:06:58.089Z,39.38
2019-05-29T05:07:58.101Z,39.38
2019-05-29T05:08:58.069Z,39.38
2019-05-29T05:09:58.055Z,45.00
2019-05-29T05:10:58.052Z,45.00
2019-05-29T05:11:58.058Z,45.00
2019-05-29T05:12:58.058Z,45.00
2019-05-29T05:14:01.307Z,45.00
2019-05-29T05:14:58.061Z,45.00
2019-05-29T05:15:57.988Z,45.00
2019-05-29T05:16:57.984Z,45.00
2019-05-29T05:17:58.000Z,45.00
2019-05-29T05:18:57.989Z,45.00
2019-05-29T05:19:59.654Z,50.62
2019-05-29T05:20:57.934Z,50.62
2019-05-29T05:21:58.864Z,50.62
2019-05-29T05:22:57.913Z,56.25
2019-05-29T05:23:57.934Z,56.25
2019-05-29T05:24:57.899Z,56.25
2019-05-29T05:25:57.889Z,56.25
2019-05-29T05:26:57.871Z,56.25
2019-05-29T05:27:57.861Z,56.25
2019-05-29T05:28:57.903Z,56.25
2019-05-29T05:29:58.367Z,56.25
2019-05-29T05:30:57.869Z,56.25
2019-05-29T05:31:57.825Z,56.25
2019-05-29T05:32:58.679Z,56.25
2019-05-29T05:33:57.827Z,56.25
2019-05-29T05:34:58.287Z,56.25
2019-05-29T05:35:57.786Z,50.62
2019-05-29T05:36:57.775Z,50.62
2019-05-29T05:37:57.787Z,50.62
2019-05-29T05:38:57.776Z,50.62
2019-05-29T05:39:57.761Z,50.62
2019-05-29T05:40:57.733Z,50.62
2019-05-29T05:41:58.285Z,50.62
2019-05-29T05:42:57.713Z,50.62
2019-05-29T05:43:57.763Z,50.62
2019-05-29T05:44:57.691Z,50.62
2019-05-29T05:45:57.682Z,50.62
2019-05-29T05:46:57.711Z,50.62
2019-05-29T05:47:58.431Z,56.25
2019-05-29T05:48:57.693Z,56.25
2019-05-29T05:49:58.221Z,56.25
2019-05-29T05:50:57.628Z,56.25
2019-05-29T05:51:57.652Z,56.25
2019-05-29T05:52:57.673Z,61.88
2019-05-29T05:53:57.618Z,61.88
2019-05-29T05:54:57.594Z,61.88
2019-05-29T05:55:57.567Z,61.88
2019-05-29T05:56:57.563Z,61.88
2019-05-29T05:57:57.594Z,61.88
2019-05-29T05:58:58.360Z,61.88
2019-05-29T05:59:57.533Z,61.88
2019-05-29T06:00:57.522Z,61.88
2019-05-29T06:01:57.504Z,61.88
2019-05-29T06:02:57.500Z,61.88
2019-05-29T06:03:57.513Z,67.50
2019-05-29T06:04:58.441Z,67.50
2019-05-29T06:05:57.472Z,67.50
2019-05-29T06:06:57.463Z,67.50
2019-05-29T06:07:57.441Z,67.50
2019-05-29T06:08:57.530Z,67.50
2019-05-29T06:09:57.449Z,67.50
2019-05-29T06:10:58.319Z,73.12
2019-05-29T06:11:57.406Z,73.12
2019-05-29T06:12:57.411Z,78.75
2019-05-29T06:13:58.368Z,84.38
2019-05-29T06:14:57.376Z,90.00
2019-05-29T06:15:57.409Z,95.62
2019-05-29T06:16:58.768Z,101.25
2019-05-29T06:18:19.434Z,106.88
2019-05-29T06:18:58.356Z,106.88
2019-05-29T06:19:57.332Z,112.50
2019-05-29T06:20:57.353Z,112.50
2019-05-29T06:21:57.302Z,118.12
2019-05-29T06:22:57.331Z,123.75
2019-05-29T06:23:57.373Z,129.38
2019-05-29T06:24:57.271Z,135.00
2019-05-29T06:26:00.045Z,123.75
2019-05-29T06:26:57.242Z,123.75
2019-05-29T06:27:57.239Z,135.00
2019-05-29T06:28:57.230Z,157.50
2019-05-29T06:29:57.275Z,135.00
2019-05-29T06:30:57.205Z,123.75
2019-05-29T06:31:57.228Z,123.75
2019-05-29T06:32:58.016Z,118.12
2019-05-29T06:33:57.906Z,123.75
2019-05-29T06:34:57.577Z,123.75
2019-05-29T06:35:57.167Z,123.75
2019-05-29T06:36:57.144Z,123.75
2019-05-29T06:37:57.126Z,123.75
2019-05-29T06:38:57.902Z,123.75
2019-05-29T06:39:57.134Z,129.38
2019-05-29T06:40:58.012Z,140.62
2019-05-29T06:41:57.084Z,140.62
2019-05-29T06:42:57.893Z,146.25
2019-05-29T06:43:57.066Z,208.12
2019-05-29T06:44:57.082Z,146.25
2019-05-29T06:45:57.042Z,146.25
2019-05-29T06:46:57.031Z,146.25
2019-05-29T06:47:57.043Z,185.62
2019-05-29T06:49:00.576Z,157.50
2019-05-29T06:49:57.029Z,146.25
2019-05-29T06:50:57.656Z,157.50
2019-05-29T06:51:56.978Z,151.88
2019-05-29T06:52:57.001Z,163.12
2019-05-29T06:53:56.971Z,202.50
2019-05-29T06:54:57.927Z,163.12
2019-05-29T06:55:58.339Z,157.50
2019-05-29T06:56:57.445Z,151.88
2019-05-29T06:57:56.916Z,151.88
2019-05-29T06:58:56.904Z,151.88
2019-05-29T06:59:56.921Z,151.88
2019-05-29T07:00:56.885Z,151.88
2019-05-29T07:01:56.874Z,151.88
2019-05-29T07:02:56.863Z,151.88
2019-05-29T07:04:11.432Z,151.88
2019-05-29T07:04:58.882Z,151.88
2019-05-29T07:05:56.835Z,146.25
2019-05-29T07:06:56.820Z,146.25
2019-05-29T07:07:56.807Z,146.25
2019-05-29T07:08:56.797Z,157.50
2019-05-29T07:09:56.810Z,202.50
2019-05-29T07:10:56.778Z,247.50
2019-05-29T07:11:56.781Z,270.00
2019-05-29T07:12:57.608Z,270.00
2019-05-29T07:13:56.774Z,275.62
2019-05-29T07:14:56.757Z,270.00
2019-05-29T07:15:56.718Z,247.50
2019-05-29T07:16:56.711Z,208.12
2019-05-29T07:17:56.740Z,163.12
2019-05-29T07:19:24.069Z,180.00
2019-05-29T07:20:03.503Z,191.25
2019-05-29T07:20:57.664Z,157.50
2019-05-29T07:21:58.383Z,196.88
2019-05-29T07:22:56.650Z,163.12
2019-05-29T07:23:57.593Z,180.00
2019-05-29T07:24:56.652Z,174.38
2019-05-29T07:25:56.612Z,275.62
2019-05-29T07:26:56.602Z,191.25
2019-05-29T07:27:56.589Z,225.00
2019-05-29T07:29:07.397Z,185.62
2019-05-29T07:29:57.599Z,163.12
2019-05-29T07:31:01.553Z,281.25
2019-05-29T07:31:57.551Z,303.75
2019-05-29T07:32:58.864Z,298.12
2019-05-29T07:33:56.527Z,303.75
2019-05-29T07:35:03.248Z,230.62
2019-05-29T07:35:57.506Z,309.38
2019-05-29T07:36:56.504Z,303.75
2019-05-29T07:37:56.493Z,298.12
2019-05-29T07:39:03.287Z,298.12
2019-05-29T07:39:57.497Z,292.50
2019-05-29T07:40:56.984Z,286.88
2019-05-29T07:41:56.444Z,286.88
2019-05-29T07:42:57.154Z,270.00
2019-05-29T07:43:56.422Z,275.62
2019-05-29T07:44:56.470Z,292.50
2019-05-29T07:45:56.982Z,286.88
2019-05-29T07:46:56.392Z,286.88
2019-05-29T07:47:58.080Z,292.50
2019-05-29T07:48:56.363Z,292.50
2019-05-29T07:49:56.390Z,303.75
2019-05-29T07:51:06.582Z,309.38
2019-05-29T07:51:58.087Z,309.38
2019-05-29T07:52:56.372Z,315.00
2019-05-29T07:53:56.314Z,315.00
2019-05-29T07:54:56.320Z,303.75
2019-05-29T07:55:56.316Z,315.00
2019-05-29T07:56:56.278Z,315.00
2019-05-29T07:57:56.275Z,326.25
2019-05-29T07:59:02.631Z,343.12
2019-05-29T07:59:57.246Z,354.38
2019-05-29T08:01:11.642Z,348.75
2019-05-29T08:01:57.228Z,303.75
2019-05-29T08:02:57.073Z,320.62
2019-05-29T08:03:56.205Z,270.00
2019-05-29T08:04:56.199Z,303.75
2019-05-29T08:05:56.213Z,247.50
2019-05-29T08:06:56.171Z,348.75
2019-05-29T08:07:56.163Z,354.38
2019-05-29T08:08:56.152Z,343.12
2019-05-29T08:09:56.170Z,354.38
2019-05-29T08:10:56.159Z,343.12
2019-05-29T08:11:56.619Z,348.75
2019-05-29T08:12:56.157Z,343.12
2019-05-29T08:13:56.098Z,354.38
2019-05-29T08:14:56.098Z,354.38
2019-05-29T08:16:02.669Z,354.38
2019-05-29T08:16:57.735Z,354.38
2019-05-29T08:17:56.059Z,337.50
2019-05-29T08:18:56.048Z,348.75
2019-05-29T08:20:05.812Z,354.38
2019-05-29T08:20:57.054Z,354.38
2019-05-29T08:21:56.014Z,348.75
2019-05-29T08:22:56.007Z,348.75
2019-05-29T08:23:55.993Z,343.12
2019-05-29T08:24:56.792Z,348.75
2019-05-29T08:25:56.000Z,354.38
2019-05-29T08:26:55.963Z,354.38
2019-05-29T08:27:55.952Z,348.75
2019-05-29T08:28:55.942Z,354.38
2019-05-29T08:29:56.010Z,360.00
2019-05-29T08:30:56.674Z,360.00
2019-05-29T08:31:56.769Z,360.00
2019-05-29T08:32:55.899Z,365.62
2019-05-29T08:33:55.881Z,348.75
2019-05-29T08:34:55.895Z,320.62
2019-05-29T08:36:00.200Z,343.12
2019-05-29T08:37:06.597Z,354.38
2019-05-29T08:37:56.877Z,365.62
2019-05-29T08:38:55.837Z,371.25
2019-05-29T08:39:55.825Z,371.25
2019-05-29T08:40:55.836Z,371.25
2019-05-29T08:42:21.463Z,371.25
2019-05-29T08:42:56.787Z,371.25
2019-05-29T08:43:56.764Z,382.50
2019-05-29T08:44:55.765Z,388.12
2019-05-29T08:45:55.785Z,320.62
2019-05-29T08:47:09.167Z,376.88
2019-05-29T08:47:56.734Z,405.00
2019-05-29T08:48:55.723Z,393.75
2019-05-29T08:50:16.434Z,399.38
2019-05-29T08:50:56.731Z,399.38
2019-05-29T08:52:10.461Z,399.38
2019-05-29T08:52:56.761Z,405.00
2019-05-29T08:53:55.671Z,376.88
2019-05-29T08:54:55.662Z,393.75
2019-05-29T08:55:56.590Z,393.75
2019-05-29T08:56:55.644Z,399.38
2019-05-29T08:57:55.717Z,388.12
2019-05-29T08:58:55.618Z,416.25
2019-05-29T08:59:55.608Z,416.25
2019-05-29T09:00:55.637Z,416.25
2019-05-29T09:01:55.727Z,416.25
2019-05-29T09:02:55.593Z,410.62
2019-05-29T09:03:55.568Z,416.25
2019-05-29T09:04:55.556Z,416.25
2019-05-29T09:06:08.503Z,421.88
2019-05-29T09:06:56.566Z,421.88
2019-05-29T09:07:55.545Z,421.88
2019-05-29T09:08:55.585Z,399.38
2019-05-29T09:09:55.502Z,427.50
2019-05-29T09:10:55.493Z,427.50
2019-05-29T09:11:55.513Z,427.50
2019-05-29T09:13:04.428Z,416.25
2019-05-29T09:13:56.462Z,421.88
2019-05-29T09:14:55.449Z,433.12
2019-05-29T09:15:55.440Z,438.75
2019-05-29T09:16:55.451Z,438.75
2019-05-29T09:17:55.423Z,438.75
2019-05-29T09:18:55.408Z,427.50
2019-05-29T09:19:55.394Z,433.12
2019-05-29T09:21:03.365Z,438.75
2019-05-29T09:21:57.219Z,444.38
2019-05-29T09:22:55.378Z,444.38
2019-05-29T09:23:58.673Z,444.38
2019-05-29T09:24:55.346Z,450.00
2019-05-29T09:26:13.250Z,450.00
2019-05-29T09:26:56.346Z,455.62
2019-05-29T09:27:55.315Z,450.00
2019-05-29T09:28:56.229Z,455.62
2019-05-29T09:29:55.292Z,466.88
2019-05-29T09:30:55.276Z,461.25
2019-05-29T09:31:55.423Z,455.62
2019-05-29T09:32:55.253Z,461.25
2019-05-29T09:33:55.245Z,466.88
2019-05-29T09:34:55.234Z,466.88
2019-05-29T09:35:55.222Z,472.50
2019-05-29T09:36:55.934Z,478.12
2019-05-29T09:37:55.864Z,478.12
2019-05-29T09:38:55.214Z,483.75
2019-05-29T09:39:55.900Z,483.75
2019-05-29T09:40:55.204Z,483.75
2019-05-29T09:41:55.180Z,489.38
2019-05-29T09:42:55.955Z,489.38
2019-05-29T09:43:59.507Z,495.00
2019-05-29T09:44:56.779Z,495.00
2019-05-29T09:45:55.118Z,495.00
2019-05-29T09:46:55.140Z,500.62
2019-05-29T09:47:55.115Z,495.00
2019-05-29T09:48:55.084Z,500.62
2019-05-29T09:49:55.076Z,511.88
2019-05-29T09:50:55.906Z,523.12
2019-05-29T09:51:56.187Z,528.75
2019-05-29T09:52:56.767Z,528.75
2019-05-29T09:53:57.221Z,528.75
2019-05-29T09:54:56.056Z,320.62
2019-05-29T09:55:56.170Z,270.00
2019-05-29T09:56:56.685Z,540.00
2019-05-29T09:57:55.426Z,545.62
2019-05-29T09:58:56.361Z,556.88
2019-05-29T09:59:57.990Z,568.12
2019-05-29T10:01:15.410Z,562.50
2019-05-29T10:01:57.073Z,562.50
2019-05-29T10:02:55.587Z,562.50
2019-05-29T10:03:56.848Z,556.88
2019-05-29T10:04:56.522Z,562.50
2019-05-29T10:05:55.809Z,568.12
2019-05-29T10:06:55.972Z,579.38
2019-05-29T10:07:56.784Z,585.00
2019-05-29T10:08:56.063Z,585.00
2019-05-29T10:09:55.628Z,590.62
2019-05-29T10:10:59.825Z,230.62
2019-05-29T10:11:59.456Z,540.00
2019-05-29T10:12:56.492Z,202.50
2019-05-29T10:13:55.570Z,264.38
2019-05-29T10:14:56.052Z,596.25
2019-05-29T10:15:55.982Z,596.25
2019-05-29T10:16:56.286Z,585.00
2019-05-29T10:17:55.756Z,590.62
2019-05-29T10:18:56.161Z,590.62
2019-05-29T10:19:56.889Z,579.38
2019-05-29T10:20:56.178Z,556.88
2019-05-29T10:21:54.877Z,573.75
2019-05-29T10:22:55.621Z,585.00
2019-05-29T10:23:56.653Z,579.38
2019-05-29T10:24:56.242Z,579.38
2019-05-29T10:25:56.368Z,573.75
2019-05-29T10:26:55.549Z,573.75
2019-05-29T10:27:54.703Z,579.38
2019-05-29T10:29:06.855Z,579.38
2019-05-29T10:29:55.680Z,573.75
2019-05-29T10:30:54.666Z,585.00
2019-05-29T10:31:54.629Z,590.62
2019-05-29T10:32:54.765Z,596.25
2019-05-29T10:33:54.630Z,618.75
2019-05-29T10:34:54.605Z,613.12
2019-05-29T10:35:55.484Z,646.88
2019-05-29T10:36:54.881Z,258.75
2019-05-29T10:37:54.648Z,365.62
2019-05-29T10:38:54.557Z,213.75
2019-05-29T10:39:55.370Z,652.50
2019-05-29T10:41:05.318Z,630.00
2019-05-29T10:41:55.526Z,635.62
2019-05-29T10:42:55.034Z,624.38
2019-05-29T10:43:54.495Z,275.62
2019-05-29T10:44:54.493Z,241.88
2019-05-29T10:45:54.483Z,241.88
2019-05-29T10:46:56.336Z,213.75
2019-05-29T10:47:55.243Z,461.25
2019-05-29T10:48:56.548Z,202.50
2019-05-29T10:49:55.249Z,630.00
2019-05-29T10:50:55.442Z,635.62
2019-05-29T10:52:10.836Z,275.62
2019-05-29T10:52:55.431Z,641.25
2019-05-29T10:53:57.827Z,658.12
2019-05-29T10:54:54.509Z,669.38
2019-05-29T10:55:54.899Z,669.38
2019-05-29T10:56:55.025Z,669.38
2019-05-29T10:57:55.202Z,663.75
2019-05-29T10:58:59.613Z,534.38
2019-05-29T10:59:55.328Z,652.50
2019-05-29T11:00:55.601Z,669.38
2019-05-29T11:01:55.440Z,298.12
2019-05-29T11:02:57.044Z,703.12
2019-05-29T11:03:55.742Z,309.38
2019-05-29T11:04:58.267Z,230.62
2019-05-29T11:05:56.470Z,635.62
2019-05-29T11:06:54.843Z,461.25
2019-05-29T11:07:54.266Z,579.38
2019-05-29T11:08:54.274Z,230.62
2019-05-29T11:09:54.372Z,219.38
2019-05-29T11:10:54.255Z,247.50
2019-05-29T11:11:55.284Z,264.38
2019-05-29T11:12:54.657Z,618.75
2019-05-29T11:13:55.174Z,270.00
2019-05-29T11:14:55.030Z,258.75
2019-05-29T11:15:54.831Z,708.75
2019-05-29T11:16:55.075Z,703.12
2019-05-29T11:17:55.313Z,590.62
2019-05-29T11:18:55.235Z,708.75
2019-05-29T11:19:55.123Z,720.00
2019-05-29T11:20:54.107Z,241.88
2019-05-29T11:21:59.507Z,241.88
2019-05-29T11:22:55.674Z,258.75
2019-05-29T11:23:56.002Z,247.50
2019-05-29T11:24:54.192Z,725.62
2019-05-29T11:25:54.092Z,720.00
2019-05-29T11:26:54.691Z,635.62
2019-05-29T11:27:54.950Z,720.00
2019-05-29T11:28:54.433Z,742.50
2019-05-29T11:29:55.192Z,253.12
2019-05-29T11:30:55.514Z,225.00
2019-05-29T11:31:55.066Z,213.75
2019-05-29T11:32:55.603Z,202.50
2019-05-29T11:33:54.974Z,191.25
2019-05-29T11:34:55.421Z,191.25
2019-05-29T11:36:01.706Z,725.62
2019-05-29T11:36:56.000Z,714.38
2019-05-29T11:37:54.671Z,720.00
2019-05-29T11:38:54.598Z,725.62
2019-05-29T11:39:54.871Z,753.75
2019-05-29T11:41:21.962Z,641.25
2019-05-29T11:41:54.898Z,601.88
2019-05-29T11:42:54.794Z,607.50
2019-05-29T11:43:54.880Z,545.62
2019-05-29T11:44:55.150Z,793.12
2019-05-29T11:45:55.121Z,765.00
2019-05-29T11:46:54.516Z,748.12
2019-05-29T11:47:55.059Z,753.75
2019-05-29T11:48:55.135Z,736.88
2019-05-29T11:49:55.047Z,736.88
2019-05-29T11:50:54.167Z,736.88
2019-05-29T11:52:04.782Z,736.88
2019-05-29T11:52:54.784Z,748.12
2019-05-29T11:53:55.502Z,759.38
2019-05-29T11:54:59.149Z,770.62
2019-05-29T11:55:55.871Z,736.88
2019-05-29T11:56:55.036Z,264.38
2019-05-29T11:57:53.862Z,787.50
2019-05-29T11:58:54.789Z,781.88
2019-05-29T11:59:55.816Z,320.62
2019-05-29T12:00:53.683Z,658.12
2019-05-29T12:01:55.354Z,781.88
2019-05-29T12:02:54.042Z,798.75
2019-05-29T12:04:15.664Z,804.38
2019-05-29T12:04:55.132Z,798.75
2019-05-29T12:05:53.674Z,781.88
2019-05-29T12:06:53.621Z,759.38
2019-05-29T12:07:53.665Z,765.00
2019-05-29T12:08:53.790Z,753.75
2019-05-29T12:09:53.584Z,753.75
2019-05-29T12:10:55.260Z,765.00
2019-05-29T12:11:54.041Z,765.00
2019-05-29T12:12:55.457Z,776.25
2019-05-29T12:13:54.210Z,185.62
2019-05-29T12:15:06.059Z,196.88
2019-05-29T12:15:55.814Z,213.75
2019-05-29T12:16:54.151Z,196.88
2019-05-29T12:17:57.996Z,281.25
2019-05-29T12:18:55.593Z,810.00
2019-05-29T12:19:54.125Z,810.00
2019-05-29T12:20:54.025Z,804.38
2019-05-29T12:21:54.441Z,793.12
2019-05-29T12:23:19.766Z,798.75
2019-05-29T12:23:54.465Z,821.25
2019-05-29T12:24:54.465Z,225.00
2019-05-29T12:26:12.820Z,371.25
2019-05-29T12:26:56.338Z,253.12
2019-05-29T12:27:55.156Z,826.88
2019-05-29T12:28:55.846Z,810.00
2019-05-29T12:29:54.653Z,798.75
2019-05-29T12:30:55.280Z,798.75
2019-05-29T12:31:54.815Z,793.12
2019-05-29T12:32:53.415Z,781.88
2019-05-29T12:33:53.382Z,776.25
2019-05-29T12:34:55.368Z,770.62
2019-05-29T12:35:53.311Z,770.62
2019-05-29T12:36:53.367Z,770.62
2019-05-29T12:37:53.290Z,781.88
2019-05-29T12:38:53.563Z,191.25
2019-05-29T12:39:53.380Z,225.00
2019-05-29T12:40:53.512Z,731.25
2019-05-29T12:41:53.376Z,736.88
2019-05-29T12:42:55.671Z,720.00
2019-05-29T12:43:53.331Z,714.38
2019-05-29T12:44:53.591Z,196.88
2019-05-29T12:45:53.483Z,191.25
2019-05-29T12:46:53.510Z,275.62